createdAt,value
2019-05-14T00:01:22.329Z,2.64
2019-05-14T00:03:53.314Z,2.61
2019-05-14T00:06:23.436Z,2.56
2019-05-14T00:08:53.566Z,2.53
2019-05-14T00:11:23.686Z,2.52
2019-05-14T00:13:53.822Z,2.48
2019-05-14T00:16:24.392Z,2.46
2019-05-14T00:18:54.626Z,2.45
2019-05-14T00:21:24.751Z,2.41
2019-05-14T00:23:54.954Z,2.39
2019-05-14T00:26:25.150Z,2.34
2019-05-14T00:28:55.290Z,2.32
2019-05-14T00:31:25.398Z,2.29
2019-05-14T00:33:55.521Z,2.27
2019-05-14T00:36:25.632Z,2.24
2019-05-14T00:38:55.753Z,2.20
2019-05-14T00:41:25.886Z,2.16
2019-05-14T00:43:56.044Z,2.13
2019-05-14T00:46:26.155Z,2.06
2019-05-14T00:48:56.307Z,2.05
2019-05-14T00:51:26.435Z,2.06
2019-05-14T00:53:56.567Z,2.03
2019-05-14T00:56:26.694Z,2.00
2019-05-14T00:58:56.824Z,1.94
2019-05-14T01:01:26.949Z,1.94
2019-05-14T01:03:57.101Z,1.96
2019-05-14T01:06:27.231Z,1.95
2019-05-14T01:08:57.395Z,1.92
2019-05-14T01:11:28.584Z,1.92
2019-05-14T01:13:58.720Z,1.88
2019-05-14T01:16:28.848Z,1.88
2019-05-14T01:18:58.974Z,1.84
2019-05-14T01:21:31.106Z,1.82
2019-05-14T01:24:02.041Z,1.81
2019-05-14T01:26:32.206Z,1.73
2019-05-14T01:29:02.350Z,1.73
2019-05-14T01:31:33.903Z,1.74
2019-05-14T01:34:04.682Z,1.72
2019-05-14T01:36:34.822Z,1.70
2019-05-14T01:39:06.794Z,1.67
2019-05-14T01:41:36.921Z,1.65
2019-05-14T01:44:07.053Z,1.63
2019-05-14T01:46:38.266Z,1.63
2019-05-14T01:49:08.411Z,1.61
2019-05-14T01:51:38.551Z,1.58
2019-05-14T01:54:08.673Z,1.57
2019-05-14T01:56:38.787Z,1.59
2019-05-14T01:59:08.931Z,1.57
2019-05-14T02:01:41.122Z,1.54
2019-05-14T02:04:11.644Z,1.54
2019-05-14T02:06:43.043Z,1.53
2019-05-14T02:09:13.521Z,1.51
2019-05-14T02:11:43.637Z,1.47
2019-05-14T02:14:13.778Z,1.42
2019-05-14T02:16:43.894Z,1.42
2019-05-14T02:19:14.026Z,1.41
2019-05-14T02:21:45.212Z,1.42
2019-05-14T02:24:15.330Z,1.42
2019-05-14T02:26:45.450Z,1.43
2019-05-14T02:29:15.586Z,1.43
2019-05-14T02:31:45.815Z,1.41
2019-05-14T02:34:19.579Z,1.38
2019-05-14T02:36:49.649Z,1.36
2019-05-14T02:39:19.848Z,1.36
2019-05-14T02:41:50.167Z,1.38
2019-05-14T02:44:20.304Z,1.36
2019-05-14T02:46:50.850Z,1.36
2019-05-14T02:49:21.119Z,1.38
2019-05-14T02:51:51.252Z,1.37
2019-05-14T02:54:21.387Z,1.36
2019-05-14T02:56:51.494Z,1.34
2019-05-14T02:59:21.620Z,1.36
2019-05-14T03:01:51.751Z,1.43
2019-05-14T03:04:21.978Z,1.61
2019-05-14T03:06:52.131Z,1.84
2019-05-14T03:09:22.301Z,2.13
2019-05-14T03:11:52.431Z,2.33
2019-05-14T03:14:22.576Z,2.50
2019-05-14T03:16:52.916Z,2.68
2019-05-14T03:19:23.059Z,2.87
2019-05-14T03:21:53.183Z,3.14
2019-05-14T03:24:23.419Z,3.59
2019-05-14T03:26:53.539Z,3.85
2019-05-14T03:29:26.232Z,3.84
2019-05-14T03:31:55.519Z,3.99
2019-05-14T03:34:25.681Z,4.21
2019-05-14T03:36:55.932Z,4.29
2019-05-14T03:39:29.399Z,4.14
2019-05-14T03:41:58.970Z,4.26
2019-05-14T03:44:29.558Z,4.46
2019-05-14T03:47:04.662Z,4.34
2019-05-14T03:49:31.602Z,3.99
2019-05-14T03:52:01.716Z,4.01
2019-05-14T03:54:31.867Z,4.04
2019-05-14T03:57:02.182Z,4.11
2019-05-14T03:59:32.411Z,4.18
2019-05-14T04:02:02.710Z,3.94
2019-05-14T04:04:32.879Z,3.73
2019-05-14T04:07:04.384Z,3.71
2019-05-14T04:09:35.177Z,3.83
2019-05-14T04:12:09.950Z,4.01
2019-05-14T04:14:43.191Z,4.17
2019-05-14T04:17:28.504Z,4.26
2019-05-14T04:19:51.287Z,4.36
2019-05-14T04:22:24.149Z,4.47
2019-05-14T04:24:59.434Z,4.46
2019-05-14T04:27:30.186Z,4.51
2019-05-14T04:30:02.257Z,4.54
2019-05-14T04:32:32.554Z,4.62
2019-05-14T04:35:03.103Z,4.68
2019-05-14T04:37:33.235Z,4.77
2019-05-14T04:40:03.513Z,4.88
2019-05-14T04:42:33.626Z,5.06
2019-05-14T04:45:06.405Z,5.19
2019-05-14T04:47:40.915Z,5.35
2019-05-14T04:50:10.532Z,5.48
2019-05-14T04:52:40.837Z,5.71
2019-05-14T04:55:11.292Z,6.00
2019-05-14T04:57:41.465Z,6.26
2019-05-14T05:00:12.720Z,6.51
2019-05-14T05:02:43.056Z,6.77
2019-05-14T05:05:14.368Z,7.02
2019-05-14T05:07:44.731Z,7.25
2019-05-14T05:10:19.044Z,7.53
2019-05-14T05:12:49.306Z,7.81
2019-05-14T05:15:19.974Z,8.11
2019-05-14T05:17:53.034Z,8.39
2019-05-14T05:20:21.971Z,8.70
2019-05-14T05:22:52.253Z,9.07
2019-05-14T05:25:24.475Z,9.37
2019-05-14T05:27:56.419Z,9.73
2019-05-14T05:30:26.426Z,10.07
2019-05-14T05:32:59.703Z,10.44
2019-05-14T05:35:30.076Z,10.87
2019-05-14T05:38:00.200Z,11.33
2019-05-14T05:40:30.350Z,11.71
2019-05-14T05:43:00.504Z,12.09
2019-05-14T05:45:30.720Z,12.49
2019-05-14T05:48:01.844Z,12.88
2019-05-14T05:50:32.125Z,13.25
2019-05-14T05:53:02.324Z,13.46
2019-05-14T05:55:32.427Z,13.79
2019-05-14T05:58:02.576Z,13.99
2019-05-14T06:00:35.533Z,14.16
2019-05-14T06:03:05.768Z,14.42
2019-05-14T06:05:38.677Z,14.72
2019-05-14T06:08:08.597Z,14.81
2019-05-14T06:10:40.183Z,15.00
2019-05-14T06:13:13.916Z,15.36
2019-05-14T06:15:48.314Z,15.36
2019-05-14T06:18:19.533Z,15.62
2019-05-14T06:20:49.347Z,15.90
2019-05-14T06:23:19.741Z,16.08
2019-05-14T06:25:49.892Z,16.26
2019-05-14T06:28:20.943Z,16.31
2019-05-14T06:30:51.276Z,15.90
2019-05-14T06:33:21.403Z,16.22
2019-05-14T06:35:51.533Z,16.16
2019-05-14T06:38:21.675Z,16.42
2019-05-14T06:40:51.813Z,15.70
2019-05-14T06:43:22.140Z,15.76
2019-05-14T06:45:52.276Z,15.61
2019-05-14T06:48:30.847Z,15.87
2019-05-14T06:50:54.228Z,16.20
2019-05-14T06:53:24.357Z,16.41
2019-05-14T06:55:54.489Z,16.59
2019-05-14T06:58:24.617Z,16.76
2019-05-14T07:00:54.753Z,17.04
2019-05-14T07:03:24.936Z,17.07
2019-05-14T07:05:55.107Z,17.31
2019-05-14T07:08:25.217Z,17.56
2019-05-14T07:10:55.373Z,17.89
2019-05-14T07:13:25.529Z,17.29
2019-05-14T07:15:58.192Z,16.44
2019-05-14T07:18:43.994Z,16.90
2019-05-14T07:21:00.434Z,16.68
2019-05-14T07:23:30.558Z,16.51
2019-05-14T07:26:00.691Z,17.06
2019-05-14T07:28:30.819Z,17.42
2019-05-14T07:31:00.964Z,17.52
2019-05-14T07:33:31.159Z,17.66
2019-05-14T07:36:01.289Z,17.85
2019-05-14T07:38:31.414Z,17.79
2019-05-14T07:41:01.552Z,17.58
2019-05-14T07:43:31.705Z,16.92
2019-05-14T07:46:01.816Z,16.70
2019-05-14T07:48:31.986Z,16.94
2019-05-14T07:51:02.122Z,17.23
2019-05-14T07:53:38.648Z,17.72
2019-05-14T07:56:04.160Z,17.91
2019-05-14T07:58:34.299Z,17.27
2019-05-14T08:01:04.444Z,17.29
2019-05-14T08:03:34.571Z,17.53
2019-05-14T08:06:04.761Z,17.72
2019-05-14T08:08:34.895Z,17.53
2019-05-14T08:11:05.332Z,18.03
2019-05-14T08:13:35.522Z,18.07
2019-05-14T08:16:05.660Z,18.37
2019-05-14T08:18:35.777Z,18.81
2019-05-14T08:21:08.286Z,19.32
2019-05-14T08:23:39.176Z,18.96
2019-05-14T08:26:09.751Z,19.38
2019-05-14T08:28:40.953Z,19.63
2019-05-14T08:31:11.098Z,19.81
2019-05-14T08:33:41.241Z,19.71
2019-05-14T08:36:11.369Z,19.47
2019-05-14T08:38:45.393Z,19.67
2019-05-14T08:41:13.324Z,19.71
2019-05-14T08:43:43.444Z,20.11
2019-05-14T08:46:13.581Z,20.01
2019-05-14T08:48:43.705Z,19.76
2019-05-14T08:51:13.838Z,19.56
2019-05-14T08:53:43.977Z,19.26
2019-05-14T08:56:14.217Z,19.56
2019-05-14T08:58:44.339Z,20.20
2019-05-14T09:01:14.484Z,20.07
2019-05-14T09:03:44.591Z,20.23
2019-05-14T09:06:14.788Z,20.41
2019-05-14T09:08:44.917Z,20.37
2019-05-14T09:11:15.096Z,20.24
2019-05-14T09:13:45.301Z,20.70
2019-05-14T09:16:15.434Z,21.07
2019-05-14T09:18:45.565Z,21.03
2019-05-14T09:21:15.709Z,21.01
2019-05-14T09:23:48.068Z,21.00
2019-05-14T09:26:18.240Z,21.32
2019-05-14T09:28:48.548Z,20.97
2019-05-14T09:31:19.903Z,21.02
2019-05-14T09:33:50.268Z,21.01
2019-05-14T09:36:24.033Z,20.11
2019-05-14T09:38:52.244Z,19.82
2019-05-14T09:41:22.371Z,20.28
2019-05-14T09:43:52.560Z,20.89
2019-05-14T09:46:22.692Z,20.78
2019-05-14T09:48:52.820Z,21.03
2019-05-14T09:51:23.023Z,21.20
2019-05-14T09:53:53.145Z,20.97
2019-05-14T09:56:23.561Z,20.87
2019-05-14T09:58:53.740Z,21.05
2019-05-14T10:01:23.878Z,21.54
2019-05-14T10:03:54.008Z,21.53
2019-05-14T10:06:24.182Z,20.79
2019-05-14T10:08:54.303Z,19.83
2019-05-14T10:11:24.449Z,19.88
2019-05-14T10:13:54.572Z,19.88
2019-05-14T10:16:24.729Z,20.40
2019-05-14T10:18:54.845Z,20.80
2019-05-14T10:21:26.068Z,20.62
2019-05-14T10:23:58.448Z,20.85
2019-05-14T10:26:28.846Z,21.13
2019-05-14T10:28:59.215Z,20.88
2019-05-14T10:31:29.369Z,19.95
2019-05-14T10:33:59.553Z,19.84
2019-05-14T10:36:30.175Z,19.61
2019-05-14T10:39:00.408Z,19.62
2019-05-14T10:41:30.621Z,19.56
2019-05-14T10:44:00.740Z,20.24
2019-05-14T10:46:30.878Z,20.34
2019-05-14T10:49:16.327Z,20.63
2019-05-14T10:51:32.844Z,20.76
2019-05-14T10:54:18.858Z,21.22
2019-05-14T10:56:34.828Z,21.23
2019-05-14T10:59:05.126Z,21.55
2019-05-14T11:01:35.259Z,20.62
2019-05-14T11:04:05.425Z,19.53
2019-05-14T11:06:35.603Z,19.52
2019-05-14T11:09:09.119Z,18.82
2019-05-14T11:11:39.384Z,19.61
2019-05-14T11:14:09.597Z,20.14
2019-05-14T11:16:41.883Z,19.28
2019-05-14T11:19:11.601Z,18.66
2019-05-14T11:21:41.735Z,19.41
2019-05-14T11:24:11.873Z,19.89
2019-05-14T11:26:42.046Z,20.33
2019-05-14T11:29:12.159Z,20.65
2019-05-14T11:31:43.405Z,20.45
2019-05-14T11:34:13.552Z,20.15
2019-05-14T11:36:44.756Z,19.71
2019-05-14T11:39:14.885Z,19.68
2019-05-14T11:41:45.024Z,19.60
2019-05-14T11:44:15.148Z,19.00
2019-05-14T11:46:52.400Z,19.49
2019-05-14T11:49:19.384Z,19.81
2019-05-14T11:52:06.136Z,19.16
2019-05-14T11:54:22.999Z,19.13
2019-05-14T11:56:52.637Z,19.13
2019-05-14T11:59:22.763Z,18.92
2019-05-14T12:01:54.972Z,18.38
2019-05-14T12:04:24.742Z,18.97
2019-05-14T12:06:54.941Z,19.37
2019-05-14T12:09:25.085Z,19.89
2019-05-14T12:11:55.216Z,20.13
2019-05-14T12:14:25.333Z,20.23
2019-05-14T12:16:55.632Z,20.83
2019-05-14T12:19:28.177Z,20.04
2019-05-14T12:22:06.738Z,19.64
2019-05-14T12:24:29.473Z,20.08
2019-05-14T12:26:59.627Z,19.80
2019-05-14T12:29:29.755Z,19.70
2019-05-14T12:31:59.883Z,19.53
2019-05-14T12:34:30.053Z,19.75
2019-05-14T12:37:00.206Z,19.85
2019-05-14T12:39:30.348Z,19.49
2019-05-14T12:42:00.512Z,18.91
2019-05-14T12:44:30.641Z,19.11
2019-05-14T12:47:00.755Z,19.49
2019-05-14T12:49:30.872Z,19.80
2019-05-14T12:52:17.874Z,19.36
2019-05-14T12:54:32.817Z,18.54
2019-05-14T12:57:03.031Z,18.34
2019-05-14T12:59:33.213Z,17.90
2019-05-14T13:02:03.545Z,18.39
2019-05-14T13:04:33.685Z,18.71
2019-05-14T13:07:03.902Z,18.24
2019-05-14T13:09:34.012Z,18.34
2019-05-14T13:12:04.341Z,18.49
2019-05-14T13:14:34.469Z,18.64
2019-05-14T13:17:04.635Z,18.87
2019-05-14T13:19:34.777Z,18.63
2019-05-14T13:22:13.012Z,18.36
2019-05-14T13:24:39.416Z,18.59
2019-05-14T13:27:09.478Z,19.09
2019-05-14T13:29:39.788Z,19.36
2019-05-14T13:32:12.458Z,19.53
2019-05-14T13:34:41.761Z,19.72
2019-05-14T13:37:11.945Z,19.96
2019-05-14T13:39:42.069Z,20.05
2019-05-14T13:42:12.219Z,19.73
2019-05-14T13:44:42.533Z,19.36
2019-05-14T13:47:12.647Z,18.67
2019-05-14T13:49:43.672Z,18.16
2019-05-14T13:52:13.796Z,18.03
2019-05-14T13:54:43.918Z,17.74
2019-05-14T13:57:14.099Z,17.60
2019-05-14T13:59:44.882Z,17.86
2019-05-14T14:02:14.966Z,18.10
2019-05-14T14:04:45.380Z,18.17
2019-05-14T14:07:15.534Z,18.56
2019-05-14T14:09:45.712Z,18.80
2019-05-14T14:12:17.814Z,18.58
2019-05-14T14:14:49.381Z,17.68
2019-05-14T14:17:19.818Z,17.43
2019-05-14T14:19:49.932Z,17.21
2019-05-14T14:22:20.103Z,17.10
2019-05-14T14:24:50.353Z,16.94
2019-05-14T14:27:20.483Z,17.28
2019-05-14T14:29:50.616Z,17.60
2019-05-14T14:32:20.853Z,17.61
2019-05-14T14:34:51.126Z,17.93
2019-05-14T14:37:21.271Z,17.82
2019-05-14T14:39:51.411Z,18.03
2019-05-14T14:42:21.600Z,18.11
2019-05-14T14:44:51.717Z,18.08
2019-05-14T14:47:21.927Z,18.09
2019-05-14T14:49:52.233Z,18.20
2019-05-14T14:52:22.376Z,18.31
2019-05-14T14:54:53.278Z,18.42
2019-05-14T14:57:23.408Z,18.57
2019-05-14T14:59:56.215Z,18.71
2019-05-14T15:02:25.417Z,18.71
2019-05-14T15:04:55.556Z,18.66
2019-05-14T15:07:29.650Z,18.42
2019-05-14T15:09:59.654Z,18.67
2019-05-14T15:12:29.883Z,18.58
2019-05-14T15:15:00.082Z,18.60
2019-05-14T15:17:30.321Z,18.70
2019-05-14T15:20:00.463Z,18.75
2019-05-14T15:22:31.214Z,18.79
2019-05-14T15:25:01.491Z,18.35
2019-05-14T15:27:31.667Z,17.93
2019-05-14T15:30:01.802Z,17.84
2019-05-14T15:32:32.136Z,17.96
2019-05-14T15:35:02.590Z,17.80
2019-05-14T15:37:32.922Z,17.33
2019-05-14T15:40:04.153Z,16.92
2019-05-14T15:42:34.561Z,16.70
2019-05-14T15:45:05.400Z,16.49
2019-05-14T15:47:35.547Z,16.29
2019-05-14T15:50:08.915Z,16.22
2019-05-14T15:52:39.922Z,16.16
2019-05-14T15:55:10.757Z,16.05
2019-05-14T15:57:41.051Z,15.82
2019-05-14T16:00:11.543Z,15.54
2019-05-14T16:02:42.964Z,15.38
2019-05-14T16:05:13.093Z,15.02
2019-05-14T16:07:44.187Z,14.85
2019-05-14T16:10:16.339Z,14.90
2019-05-14T16:12:49.379Z,14.70
2019-05-14T16:15:18.883Z,14.55
2019-05-14T16:18:04.362Z,14.33
2019-05-14T16:20:20.955Z,14.27
2019-05-14T16:22:51.168Z,14.21
2019-05-14T16:25:21.497Z,14.01
2019-05-14T16:27:51.644Z,13.68
2019-05-14T16:30:21.771Z,13.56
2019-05-14T16:32:51.910Z,13.53
2019-05-14T16:35:22.056Z,13.70
2019-05-14T16:37:52.387Z,13.68
2019-05-14T16:40:22.589Z,13.59
2019-05-14T16:42:52.721Z,13.61
2019-05-14T16:45:23.793Z,13.48
2019-05-14T16:47:54.357Z,13.46
2019-05-14T16:50:24.574Z,13.43
2019-05-14T16:52:54.749Z,13.49
2019-05-14T16:55:27.818Z,13.39
2019-05-14T16:57:58.230Z,13.41
2019-05-14T17:00:29.437Z,13.49
2019-05-14T17:02:59.798Z,13.39
2019-05-14T17:05:30.329Z,13.33
2019-05-14T17:08:00.593Z,13.36
2019-05-14T17:10:30.752Z,13.43
2019-05-14T17:13:01.888Z,13.38
2019-05-14T17:15:32.184Z,13.30
2019-05-14T17:18:02.343Z,13.35
2019-05-14T17:20:32.485Z,13.38
2019-05-14T17:23:02.725Z,13.35
2019-05-14T17:25:32.831Z,13.35
2019-05-14T17:28:03.017Z,13.36
2019-05-14T17:30:33.155Z,13.37
2019-05-14T17:33:03.283Z,13.41
2019-05-14T17:35:33.409Z,13.44
2019-05-14T17:38:04.314Z,13.36
2019-05-14T17:40:34.425Z,13.30
2019-05-14T17:43:04.571Z,13.27
2019-05-14T17:45:34.738Z,13.22
2019-05-14T17:48:04.963Z,13.24
2019-05-14T17:50:39.311Z,13.11
2019-05-14T17:53:11.068Z,13.03
2019-05-14T17:55:47.150Z,13.07
2019-05-14T17:58:13.411Z,13.03
2019-05-14T18:00:43.519Z,12.99
2019-05-14T18:03:13.868Z,12.90
2019-05-14T18:05:44.031Z,12.99
2019-05-14T18:08:15.176Z,13.05
2019-05-14T18:10:45.322Z,13.04
2019-05-14T18:13:18.032Z,12.95
2019-05-14T18:15:48.830Z,12.89
2019-05-14T18:18:21.103Z,12.75
2019-05-14T18:20:51.234Z,12.73
2019-05-14T18:23:21.386Z,12.71
2019-05-14T18:26:03.366Z,12.78
2019-05-14T18:28:23.680Z,12.62
2019-05-14T18:30:53.843Z,12.46
2019-05-14T18:33:24.084Z,12.54
2019-05-14T18:35:54.288Z,12.40
2019-05-14T18:38:24.466Z,12.31
2019-05-14T18:40:54.583Z,12.21
2019-05-14T18:43:24.738Z,12.18
2019-05-14T18:45:54.911Z,12.13
2019-05-14T18:48:25.058Z,12.13
2019-05-14T18:50:59.039Z,12.18
2019-05-14T18:53:28.591Z,12.23
2019-05-14T18:55:59.731Z,12.19
2019-05-14T18:58:30.452Z,12.21
2019-05-14T19:01:00.798Z,12.15
2019-05-14T19:03:31.062Z,12.12
2019-05-14T19:06:01.215Z,12.14
2019-05-14T19:08:32.820Z,12.12
2019-05-14T19:11:03.040Z,12.15
2019-05-14T19:13:33.393Z,12.17
2019-05-14T19:16:03.722Z,12.21
2019-05-14T19:18:34.039Z,12.22
2019-05-14T19:21:04.241Z,12.18
2019-05-14T19:23:34.412Z,12.12
2019-05-14T19:26:04.609Z,12.05
2019-05-14T19:28:34.833Z,11.73
2019-05-14T19:31:06.326Z,11.88
2019-05-14T19:33:38.021Z,11.81
2019-05-14T19:36:08.990Z,11.71
2019-05-14T19:38:39.397Z,11.58
2019-05-14T19:41:09.629Z,11.46
2019-05-14T19:43:41.105Z,11.39
2019-05-14T19:46:11.274Z,11.31
2019-05-14T19:48:41.610Z,11.22
2019-05-14T19:51:11.909Z,11.11
2019-05-14T19:53:42.169Z,11.02
2019-05-14T19:56:12.423Z,10.93
2019-05-14T19:58:42.669Z,10.74
2019-05-14T20:01:13.006Z,10.72
2019-05-14T20:03:43.302Z,10.64
2019-05-14T20:06:13.604Z,10.50
2019-05-14T20:08:43.878Z,10.47
2019-05-14T20:11:14.207Z,10.26
2019-05-14T20:13:48.463Z,10.31
2019-05-14T20:16:18.541Z,10.36
2019-05-14T20:18:48.934Z,10.26
2019-05-14T20:21:19.182Z,10.22
2019-05-14T20:23:49.343Z,10.12
2019-05-14T20:26:19.569Z,10.06
2019-05-14T20:28:49.775Z,10.05
2019-05-14T20:31:19.926Z,10.05
2019-05-14T20:33:50.068Z,10.07
2019-05-14T20:36:20.206Z,9.91
2019-05-14T20:38:50.325Z,9.93
2019-05-14T20:41:20.447Z,9.91
2019-05-14T20:43:50.618Z,9.92
2019-05-14T20:46:20.734Z,9.85
2019-05-14T20:48:50.877Z,9.76
2019-05-14T20:51:20.978Z,9.70
2019-05-14T20:53:51.096Z,9.62
2019-05-14T20:56:21.226Z,9.49
2019-05-14T20:58:51.450Z,9.29
2019-05-14T21:01:21.580Z,9.24
2019-05-14T21:03:51.726Z,9.18
2019-05-14T21:06:21.902Z,9.09
2019-05-14T21:08:52.073Z,9.00
2019-05-14T21:11:22.195Z,8.94
2019-05-14T21:13:52.320Z,8.86
2019-05-14T21:16:22.461Z,8.81
2019-05-14T21:18:52.615Z,8.78
2019-05-14T21:21:22.743Z,8.70
2019-05-14T21:23:52.875Z,8.61
2019-05-14T21:26:23.001Z,8.55
2019-05-14T21:28:53.130Z,8.52
2019-05-14T21:31:23.242Z,8.45
2019-05-14T21:33:53.464Z,8.38
2019-05-14T21:36:23.579Z,8.31
2019-05-14T21:38:53.700Z,8.25
2019-05-14T21:41:23.816Z,8.20
2019-05-14T21:43:53.980Z,8.16
2019-05-14T21:46:24.094Z,8.04
2019-05-14T21:48:54.218Z,7.92
2019-05-14T21:51:24.338Z,7.91
2019-05-14T21:53:54.452Z,7.79
2019-05-14T21:56:24.578Z,7.75
2019-05-14T21:58:54.809Z,7.67
2019-05-14T22:01:24.924Z,7.52
2019-05-14T22:03:55.140Z,7.47
2019-05-14T22:06:25.238Z,7.47
2019-05-14T22:08:55.454Z,7.45
2019-05-14T22:11:25.668Z,7.43
2019-05-14T22:13:58.159Z,7.38
2019-05-14T22:16:28.231Z,7.33
2019-05-14T22:18:59.309Z,7.28
2019-05-14T22:21:29.652Z,7.23
2019-05-14T22:23:59.762Z,7.20
2019-05-14T22:26:29.898Z,7.18
2019-05-14T22:29:00.060Z,7.06
2019-05-14T22:31:30.199Z,6.99
2019-05-14T22:34:00.456Z,6.91
2019-05-14T22:36:30.579Z,6.80
2019-05-14T22:39:00.694Z,6.74
2019-05-14T22:41:32.457Z,6.67
2019-05-14T22:44:02.605Z,6.62
2019-05-14T22:46:32.738Z,6.61
2019-05-14T22:49:02.878Z,6.60
2019-05-14T22:51:33.301Z,6.52
2019-05-14T22:54:03.516Z,6.49
2019-05-14T22:56:33.674Z,6.46
2019-05-14T22:59:03.791Z,6.39
2019-05-14T23:01:34.072Z,6.36
2019-05-14T23:04:04.195Z,6.34
2019-05-14T23:06:34.320Z,6.28
2019-05-14T23:09:05.617Z,6.25
2019-05-14T23:11:35.760Z,6.21
2019-05-14T23:14:07.592Z,6.18
2019-05-14T23:16:41.640Z,6.14
2019-05-14T23:19:09.674Z,6.08
2019-05-14T23:21:39.794Z,6.02
2019-05-14T23:24:10.022Z,5.99
2019-05-14T23:26:40.134Z,5.95
2019-05-14T23:29:10.284Z,5.91
2019-05-14T23:31:40.402Z,5.87
2019-05-14T23:34:10.557Z,5.85
2019-05-14T23:36:40.780Z,5.79
2019-05-14T23:39:10.930Z,5.72
2019-05-14T23:41:41.058Z,5.68
2019-05-14T23:44:11.203Z,5.63
2019-05-14T23:46:41.321Z,5.60
2019-05-14T23:49:11.464Z,5.57
2019-05-14T23:51:41.566Z,5.52
2019-05-14T23:54:11.682Z,5.47
2019-05-14T23:56:41.801Z,5.40
2019-05-14T23:59:11.922Z,5.40
